sensor_id;sensor_type;location;lat;lon;timestamp;pressure;altitude;pressure_sealevel;temperature;humidity
50518;BME280;37075;44.084;2.962;2024-03-08T00:01:35;97038.38;;;10.77;57.64
50518;BME280;37075;44.084;2.962;2024-03-08T00:04:21;97045.50;;;10.82;57.38
50518;BME280;37075;44.084;2.962;2024-03-08T00:07:08;97046.28;;;10.82;57.31
50518;BME280;37075;44.084;2.962;2024-03-08T00:09:54;97036.16;;;10.83;57.07
50518;BME280;37075;44.084;2.962;2024-03-08T00:12:41;97039.69;;;10.84;57.16
50518;BME280;37075;44.084;2.962;2024-03-08T00:15:27;97024.09;;;10.84;57.39
50518;BME280;37075;44.084;2.962;2024-03-08T00:18:14;97027.97;;;10.83;57.09
50518;BME280;37075;44.084;2.962;2024-03-08T00:21:01;97019.00;;;10.82;57.01
50518;BME280;37075;44.084;2.962;2024-03-08T00:23:48;97014.69;;;10.81;57.14
50518;BME280;37075;44.084;2.962;2024-03-08T00:26:34;97007.28;;;10.82;57.04
50518;BME280;37075;44.084;2.962;2024-03-08T00:29:20;97001.06;;;10.81;57.40
50518;BME280;37075;44.084;2.962;2024-03-08T00:32:06;96997.88;;;10.79;57.48
50518;BME280;37075;44.084;2.962;2024-03-08T00:34:53;97002.19;;;10.80;57.49
50518;BME280;37075;44.084;2.962;2024-03-08T00:37:39;96988.19;;;10.82;57.76
50518;BME280;37075;44.084;2.962;2024-03-08T00:40:27;96987.78;;;10.80;57.86
50518;BME280;37075;44.084;2.962;2024-03-08T00:43:14;96990.50;;;10.80;57.80
50518;BME280;37075;44.084;2.962;2024-03-08T00:46:01;96986.63;;;10.81;57.67
50518;BME280;37075;44.084;2.962;2024-03-08T00:48:47;96982.75;;;10.82;57.77
50518;BME280;37075;44.084;2.962;2024-03-08T00:51:33;96972.63;;;10.82;57.64
50518;BME280;37075;44.084;2.962;2024-03-08T00:54:19;96944.91;;;10.80;57.55
50518;BME280;37075;44.084;2.962;2024-03-08T00:57:07;96960.94;;;10.82;57.41
50518;BME280;37075;44.084;2.962;2024-03-08T00:59:53;96953.88;;;10.81;57.56
50518;BME280;37075;44.084;2.962;2024-03-08T01:02:39;96951.94;;;10.81;57.42
50518;BME280;37075;44.084;2.962;2024-03-08T01:05:25;96945.34;;;10.82;57.54
50518;BME280;37075;44.084;2.962;2024-03-08T01:08:11;96945.78;;;10.85;57.58
50518;BME280;37075;44.084;2.962;2024-03-08T01:10:57;96936.47;;;10.86;57.59
50518;BME280;37075;44.084;2.962;2024-03-08T01:13:45;96943.50;;;10.87;57.50
50518;BME280;37075;44.084;2.962;2024-03-08T01:16:32;96953.25;;;10.88;57.41
50518;BME280;37075;44.084;2.962;2024-03-08T01:19:18;96943.13;;;10.88;57.64
50518;BME280;37075;44.084;2.962;2024-03-08T01:22:05;96936.53;;;10.89;57.64
50518;BME280;37075;44.084;2.962;2024-03-08T01:24:51;96939.69;;;10.91;57.55
50518;BME280;37075;44.084;2.962;2024-03-08T01:27:37;96942.44;;;10.91;57.47
50518;BME280;37075;44.084;2.962;2024-03-08T01:30:24;96931.78;;;10.86;57.61
50518;BME280;37075;44.084;2.962;2024-03-08T01:33:10;96919.44;;;10.92;57.40
50518;BME280;37075;44.084;2.962;2024-03-08T01:35:57;96928.09;;;10.94;57.36
50518;BME280;37075;44.084;2.962;2024-03-08T01:38:43;96925.38;;;10.94;57.57
50518;BME280;37075;44.084;2.962;2024-03-08T01:41:29;96926.97;;;10.95;57.45
50518;BME280;37075;44.084;2.962;2024-03-08T01:44:15;96926.16;;;10.95;57.38
50518;BME280;37075;44.084;2.962;2024-03-08T01:47:04;96935.13;;;10.95;57.30
50518;BME280;37075;44.084;2.962;2024-03-08T01:49:50;96925.44;;;10.98;57.25
50518;BME280;37075;44.084;2.962;2024-03-08T01:52:37;96912.16;;;10.96;57.13
50518;BME280;37075;44.084;2.962;2024-03-08T01:55:23;96902.41;;;10.95;57.26
50518;BME280;37075;44.084;2.962;2024-03-08T01:58:10;96894.22;;;10.95;56.98
50518;BME280;37075;44.084;2.962;2024-03-08T02:00:57;96899.56;;;10.92;57.07
50518;BME280;37075;44.084;2.962;2024-03-08T02:03:45;96895.63;;;10.89;57.01
50518;BME280;37075;44.084;2.962;2024-03-08T02:06:31;96890.16;;;10.89;57.11
50518;BME280;37075;44.084;2.962;2024-03-08T02:09:17;96889.28;;;10.85;56.98
50518;BME280;37075;44.084;2.962;2024-03-08T02:12:04;96871.34;;;10.84;57.15
50518;BME280;37075;44.084;2.962;2024-03-08T02:14:54;96872.13;;;10.85;56.88
50518;BME280;37075;44.084;2.962;2024-03-08T02:17:41;96877.59;;;10.85;56.81
50518;BME280;37075;44.084;2.962;2024-03-08T02:20:30;96882.25;;;10.84;56.83
50518;BME280;37075;44.084;2.962;2024-03-08T02:23:16;96871.34;;;10.84;56.89
50518;BME280;37075;44.084;2.962;2024-03-08T02:26:03;96872.56;;;10.87;56.74
50518;BME280;37075;44.084;2.962;2024-03-08T02:28:50;96871.34;;;10.84;56.74
50518;BME280;37075;44.084;2.962;2024-03-08T02:31:36;96860.34;;;10.80;56.44
50518;BME280;37075;44.084;2.962;2024-03-08T02:34:24;96849.81;;;10.79;56.77
50518;BME280;37075;44.084;2.962;2024-03-08T02:37:11;96858.50;;;10.85;56.65
50518;BME280;37075;44.084;2.962;2024-03-08T02:39:57;96860.06;;;10.86;56.55
50518;BME280;37075;44.084;2.962;2024-03-08T02:42:43;96844.13;;;10.88;56.67
50518;BME280;37075;44.084;2.962;2024-03-08T02:45:29;96851.19;;;10.89;56.71
50518;BME280;37075;44.084;2.962;2024-03-08T02:48:15;96841.78;;;10.86;56.72
50518;BME280;37075;44.084;2.962;2024-03-08T02:51:02;96834.72;;;10.85;56.70
50518;BME280;37075;44.084;2.962;2024-03-08T02:53:49;96837.91;;;10.87;56.55
50518;BME280;37075;44.084;2.962;2024-03-08T02:56:36;96821.53;;;10.87;56.71
50518;BME280;37075;44.084;2.962;2024-03-08T02:59:22;96830.94;;;10.90;56.62
50518;BME280;37075;44.084;2.962;2024-03-08T03:02:08;96818.44;;;10.89;56.42
50518;BME280;37075;44.084;2.962;2024-03-08T03:04:55;96805.16;;;10.87;56.61
50518;BME280;37075;44.084;2.962;2024-03-08T03:07:41;96808.25;;;10.86;56.54
50518;BME280;37075;44.084;2.962;2024-03-08T03:10:29;96810.25;;;10.89;56.58
50518;BME280;37075;44.084;2.962;2024-03-08T03:13:15;96797.34;;;10.86;56.88
50518;BME280;37075;44.084;2.962;2024-03-08T03:16:04;96796.13;;;10.83;56.91
50518;BME280;37075;44.084;2.962;2024-03-08T03:18:52;96790.94;;;10.78;57.05
50518;BME280;37075;44.084;2.962;2024-03-08T03:21:38;96787.06;;;10.79;57.15
50518;BME280;37075;44.084;2.962;2024-03-08T03:24:24;96805.72;;;10.77;57.44
50518;BME280;37075;44.084;2.962;2024-03-08T03:27:15;96788.22;;;10.78;57.41
50518;BME280;37075;44.084;2.962;2024-03-08T03:30:01;96782.75;;;10.78;57.38
50518;BME280;37075;44.084;2.962;2024-03-08T03:33:05;96791.38;;;10.80;56.98
50518;BME280;37075;44.084;2.962;2024-03-08T03:35:51;96781.69;;;10.82;57.27
50518;BME280;37075;44.084;2.962;2024-03-08T03:38:37;96784.41;;;10.82;57.21
50518;BME280;37075;44.084;2.962;2024-03-08T03:41:23;96761.81;;;10.82;56.94
50518;BME280;37075;44.084;2.962;2024-03-08T03:44:10;96765.31;;;10.82;56.83
50518;BME280;37075;44.084;2.962;2024-03-08T03:46:56;96762.22;;;10.84;56.91
50518;BME280;37075;44.084;2.962;2024-03-08T03:49:43;96750.59;;;10.87;56.78
50518;BME280;37075;44.084;2.962;2024-03-08T03:52:29;96752.91;;;10.85;56.88
50518;BME280;37075;44.084;2.962;2024-03-08T03:55:16;96758.44;;;10.89;56.91
50518;BME280;37075;44.084;2.962;2024-03-08T03:58:03;96756.84;;;10.88;56.80
50518;BME280;37075;44.084;2.962;2024-03-08T04:00:50;96772.84;;;10.89;56.70
50518;BME280;37075;44.084;2.962;2024-03-08T04:03:36;96758.84;;;10.91;56.74
50518;BME280;37075;44.084;2.962;2024-03-08T04:06:23;96754.84;;;10.85;56.82
50518;BME280;37075;44.084;2.962;2024-03-08T04:09:09;96764.53;;;10.82;56.57
50518;BME280;37075;44.084;2.962;2024-03-08T04:11:55;96741.28;;;10.88;56.53
50518;BME280;37075;44.084;2.962;2024-03-08T04:14:42;96743.28;;;10.91;56.25
50518;BME280;37075;44.084;2.962;2024-03-08T04:17:30;96745.88;;;10.84;56.28
50518;BME280;37075;44.084;2.962;2024-03-08T04:20:16;96743.13;;;10.84;56.34
50518;BME280;37075;44.084;2.962;2024-03-08T04:23:02;96747.88;;;10.87;56.54
50518;BME280;37075;44.084;2.962;2024-03-08T04:25:48;96749.44;;;10.88;56.48
50518;BME280;37075;44.084;2.962;2024-03-08T04:28:34;96751.75;;;10.86;56.23
50518;BME280;37075;44.084;2.962;2024-03-08T04:31:21;96736.53;;;10.85;56.28
50518;BME280;37075;44.084;2.962;2024-03-08T04:34:09;96739.31;;;10.89;56.48
50518;BME280;37075;44.084;2.962;2024-03-08T04:36:56;96736.16;;;10.87;56.21
50518;BME280;37075;44.084;2.962;2024-03-08T04:39:43;96733.09;;;10.88;56.09
50518;BME280;37075;44.084;2.962;2024-03-08T04:42:30;96749.44;;;10.88;56.15
50518;BME280;37075;44.084;2.962;2024-03-08T04:45:17;96737.19;;;10.78;56.56
50518;BME280;37075;44.084;2.962;2024-03-08T04:48:04;96773.84;;;10.81;56.56
50518;BME280;37075;44.084;2.962;2024-03-08T04:50:51;96773.44;;;10.79;57.09
50518;BME280;37075;44.084;2.962;2024-03-08T04:53:38;96763.59;;;10.74;57.55
50518;BME280;37075;44.084;2.962;2024-03-08T04:56:24;96760.09;;;10.74;57.52
50518;BME280;37075;44.084;2.962;2024-03-08T04:59:10;96757.34;;;10.74;57.37
50518;BME280;37075;44.084;2.962;2024-03-08T05:01:56;96746.03;;;10.72;57.42
50518;BME280;37075;44.084;2.962;2024-03-08T05:04:42;96742.44;;;10.68;57.53
50518;BME280;37075;44.084;2.962;2024-03-08T05:07:29;96729.59;;;10.68;57.25
50518;BME280;37075;44.084;2.962;2024-03-08T05:10:15;96734.59;;;10.66;57.24
50518;BME280;37075;44.084;2.962;2024-03-08T05:13:03;96731.84;;;10.66;57.35
50518;BME280;37075;44.084;2.962;2024-03-08T05:15:49;96730.41;;;10.53;57.00
50518;BME280;37075;44.084;2.962;2024-03-08T05:18:36;96733.94;;;10.54;57.09
50518;BME280;37075;44.084;2.962;2024-03-08T05:21:22;96723.81;;;10.54;56.68
50518;BME280;37075;44.084;2.962;2024-03-08T05:24:09;96718.28;;;10.50;56.76
50518;BME280;37075;44.084;2.962;2024-03-08T05:26:55;96710.13;;;10.50;56.76
50518;BME280;37075;44.084;2.962;2024-03-08T05:29:42;96704.59;;;10.47;56.35
50518;BME280;37075;44.084;2.962;2024-03-08T05:32:28;96705.31;;;10.44;56.54
50518;BME280;37075;44.084;2.962;2024-03-08T05:35:14;96692.41;;;10.41;56.38
50518;BME280;37075;44.084;2.962;2024-03-08T05:38:00;96689.56;;;10.37;56.32
50518;BME280;37075;44.084;2.962;2024-03-08T05:40:48;96669.63;;;10.33;56.37
50518;BME280;37075;44.084;2.962;2024-03-08T05:43:35;96685.13;;;10.29;56.37
50518;BME280;37075;44.084;2.962;2024-03-08T05:46:21;96675.28;;;10.25;56.48
50518;BME280;37075;44.084;2.962;2024-03-08T05:49:07;96657.72;;;10.22;56.66
50518;BME280;37075;44.084;2.962;2024-03-08T05:51:55;96666.59;;;10.19;56.74
50518;BME280;37075;44.084;2.962;2024-03-08T05:54:41;96656.47;;;10.19;56.90
50518;BME280;37075;44.084;2.962;2024-03-08T05:57:28;96653.41;;;10.21;56.77
50518;BME280;37075;44.084;2.962;2024-03-08T06:00:15;96632.84;;;10.24;57.06
50518;BME280;37075;44.084;2.962;2024-03-08T06:03:01;96640.22;;;10.23;57.00
50518;BME280;37075;44.084;2.962;2024-03-08T06:05:48;96634.00;;;10.23;57.07
50518;BME280;37075;44.084;2.962;2024-03-08T06:08:34;96621.84;;;10.20;57.14
50518;BME280;37075;44.084;2.962;2024-03-08T06:11:20;96640.91;;;10.20;57.22
50518;BME280;37075;44.084;2.962;2024-03-08T06:14:07;96630.00;;;10.20;57.38
50518;BME280;37075;44.084;2.962;2024-03-08T06:16:54;96643.31;;;10.22;57.25
50518;BME280;37075;44.084;2.962;2024-03-08T06:19:40;96630.38;;;10.18;57.64
50518;BME280;37075;44.084;2.962;2024-03-08T06:22:26;96636.97;;;10.17;57.85
50518;BME280;37075;44.084;2.962;2024-03-08T06:25:12;96641.63;;;10.17;58.12
50518;BME280;37075;44.084;2.962;2024-03-08T06:27:59;96607.00;;;10.17;58.20
50518;BME280;37075;44.084;2.962;2024-03-08T06:30:47;96631.09;;;10.15;58.55
50518;BME280;37075;44.084;2.962;2024-03-08T06:33:35;96615.53;;;10.16;58.47
50518;BME280;37075;44.084;2.962;2024-03-08T06:36:21;96624.94;;;10.18;58.17
50518;BME280;37075;44.084;2.962;2024-03-08T06:39:07;96626.97;;;10.22;58.56
50518;BME280;37075;44.084;2.962;2024-03-08T06:41:55;96635.03;;;10.18;59.00
50518;BME280;37075;44.084;2.962;2024-03-08T06:44:41;96644.78;;;10.19;59.59
50518;BME280;37075;44.084;2.962;2024-03-08T06:47:34;96618.88;;;10.09;60.29
50518;BME280;37075;44.084;2.962;2024-03-08T06:50:20;96633.72;;;10.12;60.30
50518;BME280;37075;44.084;2.962;2024-03-08T06:53:07;96628.19;;;10.08;60.71
50518;BME280;37075;44.084;2.962;2024-03-08T06:55:52;96618.09;;;10.09;60.67
50518;BME280;37075;44.084;2.962;2024-03-08T06:58:39;96617.28;;;10.08;60.82
50518;BME280;37075;44.084;2.962;2024-03-08T07:01:25;96642.59;;;10.09;61.29
50518;BME280;37075;44.084;2.962;2024-03-08T07:04:14;96622.75;;;10.08;61.42
50518;BME280;37075;44.084;2.962;2024-03-08T07:07:00;96621.78;;;10.16;61.14
50518;BME280;37075;44.084;2.962;2024-03-08T07:09:47;96608.16;;;10.16;61.40
50518;BME280;37075;44.084;2.962;2024-03-08T07:12:34;96595.75;;;10.19;61.24
50518;BME280;37075;44.084;2.962;2024-03-08T07:15:21;96609.03;;;10.21;61.32
50518;BME280;37075;44.084;2.962;2024-03-08T07:18:08;96618.06;;;10.25;61.23
50518;BME280;37075;44.084;2.962;2024-03-08T07:21:00;96605.66;;;10.27;61.20
50518;BME280;37075;44.084;2.962;2024-03-08T07:23:46;96593.63;;;10.28;61.31
50518;BME280;37075;44.084;2.962;2024-03-08T07:26:47;96598.28;;;10.28;61.19
50518;BME280;37075;44.084;2.962;2024-03-08T07:29:35;96599.06;;;10.28;61.03
50518;BME280;37075;44.084;2.962;2024-03-08T07:32:20;96590.88;;;10.28;61.40
50518;BME280;37075;44.084;2.962;2024-03-08T07:35:08;96566.34;;;10.28;61.36
50518;BME280;37075;44.084;2.962;2024-03-08T07:37:55;96585.78;;;10.27;61.41
50518;BME280;37075;44.084;2.962;2024-03-08T07:40:42;96585.16;;;10.33;61.17
50518;BME280;37075;44.084;2.962;2024-03-08T07:43:29;96578.13;;;10.32;61.13
50518;BME280;37075;44.084;2.962;2024-03-08T07:46:15;96577.41;;;10.35;61.12
50518;BME280;37075;44.084;2.962;2024-03-08T07:49:03;96588.28;;;10.35;61.14
50518;BME280;37075;44.084;2.962;2024-03-08T07:51:49;96584.06;;;10.38;61.22
50518;BME280;37075;44.084;2.962;2024-03-08T07:54:38;96575.25;;;10.44;61.02
50518;BME280;37075;44.084;2.962;2024-03-08T07:57:24;96595.91;;;10.45;60.80
50518;BME280;37075;44.084;2.962;2024-03-08T08:00:12;96559.31;;;10.46;60.92
50518;BME280;37075;44.084;2.962;2024-03-08T08:03:02;96574.59;;;10.51;60.88
50518;BME280;37075;44.084;2.962;2024-03-08T08:05:50;96572.66;;;10.52;60.92
50518;BME280;37075;44.084;2.962;2024-03-08T08:08:35;96590.66;;;10.56;60.63
50518;BME280;37075;44.084;2.962;2024-03-08T08:11:25;96576.22;;;10.56;60.68
50518;BME280;37075;44.084;2.962;2024-03-08T08:14:12;96572.41;;;10.60;60.51
50518;BME280;37075;44.084;2.962;2024-03-08T08:16:58;96563.44;;;10.60;60.37
50518;BME280;37075;44.084;2.962;2024-03-08T08:19:48;96560.00;;;10.63;60.25
50518;BME280;37075;44.084;2.962;2024-03-08T08:22:34;96556.34;;;10.55;60.33
50518;BME280;37075;44.084;2.962;2024-03-08T08:25:20;96549.75;;;10.56;60.13
50518;BME280;37075;44.084;2.962;2024-03-08T08:28:10;96523.34;;;10.60;59.84
50518;BME280;37075;44.084;2.962;2024-03-08T08:30:57;96517.53;;;10.62;59.65
50518;BME280;37075;44.084;2.962;2024-03-08T08:33:44;96502.31;;;10.61;59.58
50518;BME280;37075;44.084;2.962;2024-03-08T08:36:30;96499.22;;;10.62;59.56
50518;BME280;37075;44.084;2.962;2024-03-08T08:39:16;96538.19;;;10.63;59.34
50518;BME280;37075;44.084;2.962;2024-03-08T08:42:03;96530.44;;;10.65;59.24
50518;BME280;37075;44.084;2.962;2024-03-08T08:44:51;96530.44;;;10.65;58.96
50518;BME280;37075;44.084;2.962;2024-03-08T08:47:37;96514.06;;;10.65;58.64
50518;BME280;37075;44.084;2.962;2024-03-08T08:50:23;96519.03;;;10.59;58.50
50518;BME280;37075;44.084;2.962;2024-03-08T08:53:09;96518.63;;;10.57;58.48
50518;BME280;37075;44.084;2.962;2024-03-08T08:55:55;96531.03;;;10.55;58.26
50518;BME280;37075;44.084;2.962;2024-03-08T08:58:41;96527.09;;;10.52;58.03
50518;BME280;37075;44.084;2.962;2024-03-08T09:01:29;96521.66;;;10.52;58.47
50518;BME280;37075;44.084;2.962;2024-03-08T09:04:15;96530.31;;;10.58;58.53
50518;BME280;37075;44.084;2.962;2024-03-08T09:07:00;96518.56;;;10.54;58.59
50518;BME280;37075;44.084;2.962;2024-03-08T09:09:47;96505.66;;;10.50;58.53
50518;BME280;37075;44.084;2.962;2024-03-08T09:12:33;96483.84;;;10.50;58.97
50518;BME280;37075;44.084;2.962;2024-03-08T09:15:19;96476.88;;;10.53;58.87
50518;BME280;37075;44.084;2.962;2024-03-08T09:18:07;96462.41;;;10.49;58.74
50518;BME280;37075;44.084;2.962;2024-03-08T09:20:54;96448.66;;;10.42;58.71
50518;BME280;37075;44.084;2.962;2024-03-08T09:23:41;96454.03;;;10.38;58.96
50518;BME280;37075;44.084;2.962;2024-03-08T09:26:29;96465.66;;;10.35;58.77
50518;BME280;37075;44.084;2.962;2024-03-08T09:29:18;96455.16;;;10.37;58.74
50518;BME280;37075;44.084;2.962;2024-03-08T09:32:04;96459.00;;;10.33;58.82
50518;BME280;37075;44.084;2.962;2024-03-08T09:34:53;96447.25;;;10.29;58.84
50518;BME280;37075;44.084;2.962;2024-03-08T09:37:40;96445.72;;;10.31;58.93
50518;BME280;37075;44.084;2.962;2024-03-08T09:40:27;96456.22;;;10.29;58.77
50518;BME280;37075;44.084;2.962;2024-03-08T09:43:13;96444.09;;;10.27;59.05
50518;BME280;37075;44.084;2.962;2024-03-08T09:45:59;96433.63;;;10.29;59.18
50518;BME280;37075;44.084;2.962;2024-03-08T09:48:46;96401.28;;;10.27;59.29
50518;BME280;37075;44.084;2.962;2024-03-08T09:51:34;96376.34;;;10.25;59.41
50518;BME280;37075;44.084;2.962;2024-03-08T09:54:21;96348.66;;;10.23;59.25
50518;BME280;37075;44.084;2.962;2024-03-08T09:57:09;96315.97;;;10.23;59.75
50518;BME280;37075;44.084;2.962;2024-03-08T09:59:54;96313.53;;;10.18;59.94
50518;BME280;37075;44.084;2.962;2024-03-08T10:02:41;96302.22;;;10.16;59.80
50518;BME280;37075;44.084;2.962;2024-03-08T10:05:27;96303.28;;;10.11;60.04
50518;BME280;37075;44.084;2.962;2024-03-08T10:08:14;96312.25;;;10.12;60.02
50518;BME280;37075;44.084;2.962;2024-03-08T10:11:01;96353.84;;;10.09;59.85
50518;BME280;37075;44.084;2.962;2024-03-08T10:13:48;96374.91;;;10.12;59.89
50518;BME280;37075;44.084;2.962;2024-03-08T10:16:34;96368.59;;;10.08;60.10
50518;BME280;37075;44.084;2.962;2024-03-08T10:19:20;96370.59;;;10.11;59.95
50518;BME280;37075;44.084;2.962;2024-03-08T10:22:14;96366.34;;;10.13;60.06
50518;BME280;37075;44.084;2.962;2024-03-08T10:25:02;96348.75;;;10.07;60.35
50518;BME280;37075;44.084;2.962;2024-03-08T10:27:49;96336.28;;;10.06;60.47
50518;BME280;37075;44.084;2.962;2024-03-08T10:30:35;96331.63;;;10.07;61.03
50518;BME280;37075;44.084;2.962;2024-03-08T10:33:21;96314.84;;;10.05;61.41
50518;BME280;37075;44.084;2.962;2024-03-08T10:36:08;96304.69;;;10.02;62.15
50518;BME280;37075;44.084;2.962;2024-03-08T10:38:56;96289.50;;;10.01;62.25
50518;BME280;37075;44.084;2.962;2024-03-08T10:41:52;96276.94;;;9.93;62.84
50518;BME280;37075;44.084;2.962;2024-03-08T10:44:49;96279.66;;;9.93;63.35
50518;BME280;37075;44.084;2.962;2024-03-08T10:47:41;96292.47;;;9.92;63.49
50518;BME280;37075;44.084;2.962;2024-03-08T10:50:28;96311.59;;;9.96;63.66
50518;BME280;37075;44.084;2.962;2024-03-08T10:53:15;96300.81;;;10.03;63.04
50518;BME280;37075;44.084;2.962;2024-03-08T10:56:04;96304.38;;;10.07;63.89
50518;BME280;37075;44.084;2.962;2024-03-08T10:58:54;96302.38;;;10.04;63.20
50518;BME280;37075;44.084;2.962;2024-03-08T11:01:41;96277.50;;;10.05;63.21
50518;BME280;37075;44.084;2.962;2024-03-08T11:04:27;96306.94;;;9.96;62.82
50518;BME280;37075;44.084;2.962;2024-03-08T11:07:13;96301.97;;;10.02;62.79
50518;BME280;37075;44.084;2.962;2024-03-08T11:10:02;96327.53;;;9.94;63.54
50518;BME280;37075;44.084;2.962;2024-03-08T11:12:50;96328.25;;;9.91;63.88
50518;BME280;37075;44.084;2.962;2024-03-08T11:15:38;96322.72;;;9.87;63.70
50518;BME280;37075;44.084;2.962;2024-03-08T11:18:25;96331.19;;;9.82;63.67
50518;BME280;37075;44.084;2.962;2024-03-08T11:21:12;96348.06;;;9.68;64.40
50518;BME280;37075;44.084;2.962;2024-03-08T11:23:59;96347.72;;;9.50;64.66
50518;BME280;37075;44.084;2.962;2024-03-08T11:26:45;96381.88;;;9.48;65.10
50518;BME280;37075;44.084;2.962;2024-03-08T11:29:36;96394.34;;;9.49;65.23
50518;BME280;37075;44.084;2.962;2024-03-08T11:32:27;96387.69;;;9.46;64.97
50518;BME280;37075;44.084;2.962;2024-03-08T11:35:22;96386.31;;;9.37;66.41
50518;BME280;37075;44.084;2.962;2024-03-08T11:38:08;96389.25;;;9.28;65.91
50518;BME280;37075;44.084;2.962;2024-03-08T11:40:56;96389.75;;;9.14;66.63
50518;BME280;37075;44.084;2.962;2024-03-08T11:43:43;96392.75;;;9.09;67.33
50518;BME280;37075;44.084;2.962;2024-03-08T11:46:29;96390.56;;;9.15;66.64
50518;BME280;37075;44.084;2.962;2024-03-08T11:49:16;96399.53;;;9.00;66.50
50518;BME280;37075;44.084;2.962;2024-03-08T11:52:02;96374.28;;;8.99;66.44
50518;BME280;37075;44.084;2.962;2024-03-08T11:54:52;96358.53;;;9.08;66.37
50518;BME280;37075;44.084;2.962;2024-03-08T11:57:41;96354.44;;;8.99;66.95
50518;BME280;37075;44.084;2.962;2024-03-08T12:00:28;96362.31;;;9.04;66.73
50518;BME280;37075;44.084;2.962;2024-03-08T12:03:19;96392.44;;;8.95;67.79
50518;BME280;37075;44.084;2.962;2024-03-08T12:06:07;96368.31;;;8.93;67.76
50518;BME280;37075;44.084;2.962;2024-03-08T12:08:54;96373.69;;;8.90;67.18
50518;BME280;37075;44.084;2.962;2024-03-08T12:11:40;96359.47;;;8.96;66.88
50518;BME280;37075;44.084;2.962;2024-03-08T12:14:27;96351.78;;;9.02;67.15
50518;BME280;37075;44.084;2.962;2024-03-08T12:17:13;96346.84;;;9.08;67.33
50518;BME280;37075;44.084;2.962;2024-03-08T12:20:11;96351.66;;;8.95;67.88
50518;BME280;37075;44.084;2.962;2024-03-08T12:22:59;96332.75;;;9.02;67.77
50518;BME280;37075;44.084;2.962;2024-03-08T12:25:45;96340.44;;;9.16;67.91
50518;BME280;37075;44.084;2.962;2024-03-08T12:28:32;96322.31;;;9.23;68.18
50518;BME280;37075;44.084;2.962;2024-03-08T12:31:18;96329.41;;;9.28;68.20
50518;BME280;37075;44.084;2.962;2024-03-08T12:34:05;96314.34;;;9.34;67.92
50518;BME280;37075;44.084;2.962;2024-03-08T12:36:52;96308.22;;;9.37;68.04
50518;BME280;37075;44.084;2.962;2024-03-08T12:39:40;96311.00;;;9.41;67.93
50518;BME280;37075;44.084;2.962;2024-03-08T12:42:26;96317.16;;;9.38;68.62
50518;BME280;37075;44.084;2.962;2024-03-08T12:45:14;96304.00;;;9.40;68.59
50518;BME280;37075;44.084;2.962;2024-03-08T12:48:00;96299.81;;;9.46;68.55
50518;BME280;37075;44.084;2.962;2024-03-08T12:50:48;96310.34;;;9.47;68.83
50518;BME280;37075;44.084;2.962;2024-03-08T12:53:36;96303.03;;;9.51;68.86
50518;BME280;37075;44.084;2.962;2024-03-08T12:56:31;96290.31;;;9.59;68.97
50518;BME280;37075;44.084;2.962;2024-03-08T12:59:18;96295.56;;;9.68;69.12
50518;BME280;37075;44.084;2.962;2024-03-08T13:02:06;96300.44;;;9.81;69.85
50518;BME280;37075;44.084;2.962;2024-03-08T13:04:56;96289.81;;;9.96;69.87
50518;BME280;37075;44.084;2.962;2024-03-08T13:07:43;96289.88;;;10.22;70.59
50518;BME280;37075;44.084;2.962;2024-03-08T13:10:30;96288.50;;;10.62;71.76
50518;BME280;37075;44.084;2.962;2024-03-08T13:13:18;96285.38;;;10.90;71.15
50518;BME280;37075;44.084;2.962;2024-03-08T13:16:04;96262.53;;;11.01;70.04
50518;BME280;37075;44.084;2.962;2024-03-08T13:18:52;96261.84;;;11.11;69.52
50518;BME280;37075;44.084;2.962;2024-03-08T13:21:39;96278.78;;;11.24;69.25
50518;BME280;37075;44.084;2.962;2024-03-08T13:24:25;96267.16;;;11.31;68.34
50518;BME280;37075;44.084;2.962;2024-03-08T13:27:11;96253.09;;;11.29;67.61
50518;BME280;37075;44.084;2.962;2024-03-08T13:30:06;96258.19;;;11.30;67.53
50518;BME280;37075;44.084;2.962;2024-03-08T13:32:57;96243.78;;;11.33;67.49
50518;BME280;37075;44.084;2.962;2024-03-08T13:35:43;96241.88;;;11.37;67.27
50518;BME280;37075;44.084;2.962;2024-03-08T13:38:30;96251.78;;;11.53;67.75
50518;BME280;37075;44.084;2.962;2024-03-08T13:41:17;96243.34;;;11.68;67.81
50518;BME280;37075;44.084;2.962;2024-03-08T13:44:07;96240.75;;;11.79;67.32
50518;BME280;37075;44.084;2.962;2024-03-08T13:46:55;96232.59;;;11.83;66.81
50518;BME280;37075;44.084;2.962;2024-03-08T13:49:42;96223.22;;;11.84;66.34
50518;BME280;37075;44.084;2.962;2024-03-08T13:52:28;96222.09;;;11.88;66.92
50518;BME280;37075;44.084;2.962;2024-03-08T13:55:15;96217.13;;;12.01;67.16
50518;BME280;37075;44.084;2.962;2024-03-08T13:58:01;96223.41;;;12.09;66.34
50518;BME280;37075;44.084;2.962;2024-03-08T14:00:47;96218.78;;;12.16;66.36
50518;BME280;37075;44.084;2.962;2024-03-08T14:03:35;96201.22;;;12.17;64.76
50518;BME280;37075;44.084;2.962;2024-03-08T14:06:21;96214.13;;;12.20;65.66
50518;BME280;37075;44.084;2.962;2024-03-08T14:09:10;96232.91;;;12.25;65.24
50518;BME280;37075;44.084;2.962;2024-03-08T14:12:01;96227.47;;;12.29;65.27
50518;BME280;37075;44.084;2.962;2024-03-08T14:14:48;96229.44;;;12.32;65.11
50518;BME280;37075;44.084;2.962;2024-03-08T14:17:34;96214.97;;;12.31;64.58
50518;BME280;37075;44.084;2.962;2024-03-08T14:20:22;96236.84;;;12.31;64.49
50518;BME280;37075;44.084;2.962;2024-03-08T14:23:09;96228.66;;;12.31;64.68
50518;BME280;37075;44.084;2.962;2024-03-08T14:25:57;96223.56;;;12.30;63.94
50518;BME280;37075;44.084;2.962;2024-03-08T14:28:43;96237.69;;;12.39;64.51
50518;BME280;37075;44.084;2.962;2024-03-08T14:31:30;96232.22;;;12.39;63.91
50518;BME280;37075;44.084;2.962;2024-03-08T14:34:17;96221.75;;;12.52;64.47
50518;BME280;37075;44.084;2.962;2024-03-08T14:37:06;96216.75;;;12.68;64.57
50518;BME280;37075;44.084;2.962;2024-03-08T14:39:56;96208.22;;;12.84;64.56
50518;BME280;37075;44.084;2.962;2024-03-08T14:42:43;96209.81;;;12.88;63.41
50518;BME280;37075;44.084;2.962;2024-03-08T14:45:30;96211.75;;;12.91;63.47
50518;BME280;37075;44.084;2.962;2024-03-08T14:48:16;96218.41;;;12.97;63.21